Time;durP1;ratioP1;P1;durP2;ratioP2;P2;SDS_P1;SDS_P2;PMS_P1;PMS_P2;Temp;Humidity;BMP_temperature;BMP_pressure;BME280_temperature;BME280_humidity;BME280_pressure;Samples;Min_cycle;Max_cycle;Signal;HPM_P1;HPM_P2
2024/04/07 00:00:48;;;;;;;12.38;3.08;;;15.10;99.90;;;;;;5034941;28;20045;-77
2024/04/07 00:03:14;;;;;;;7.57;2.90;;;15.20;99.90;;;;;;5035570;28;20493;-77
2024/04/07 00:05:40;;;;;;;7.20;2.70;;;15.40;99.90;;;;;;5033724;28;20033;-78
2024/04/07 00:08:06;;;;;;;8.77;2.63;;;15.20;99.90;;;;;;5036660;28;20068;-77
2024/04/07 00:10:31;;;;;;;10.48;2.88;;;15.20;99.90;;;;;;5041862;28;20048;-79
2024/04/07 00:12:57;;;;;;;10.38;2.70;;;15.30;99.90;;;;;;5036482;28;20052;-78
2024/04/07 00:15:22;;;;;;;8.73;3.17;;;15.30;99.90;;;;;;5049086;28;20037;-78
2024/04/07 00:17:49;;;;;;;7.90;2.55;;;15.40;99.90;;;;;;5038042;28;20040;-78
2024/04/07 00:20:14;;;;;;;8.15;3.00;;;15.40;99.90;;;;;;5042046;28;20029;-78
2024/04/07 00:22:40;;;;;;;10.13;2.75;;;15.40;99.90;;;;;;5036871;28;20052;-79
2024/04/07 00:25:06;;;;;;;9.38;2.78;;;15.50;99.90;;;;;;5033760;28;20045;-78
2024/04/07 00:27:31;;;;;;;10.10;3.00;;;15.50;99.90;;;;;;5059465;28;20076;-78
2024/04/07 00:29:57;;;;;;;5.30;2.40;;;15.50;99.90;;;;;;5035654;28;20049;-78
2024/04/07 00:32:23;;;;;;;11.13;2.90;;;15.40;99.90;;;;;;5040775;28;20048;-77
2024/04/07 00:34:50;;;;;;;7.25;2.75;;;15.40;99.90;;;;;;5033464;28;20605;-79
2024/04/07 00:37:16;;;;;;;5.68;2.80;;;15.30;99.90;;;;;;5044182;28;20033;-78
2024/04/07 00:39:42;;;;;;;7.85;3.78;;;15.30;99.90;;;;;;5034871;28;20037;-78
2024/04/07 00:42:08;;;;;;;8.50;3.50;;;15.20;99.90;;;;;;5033237;28;20038;-78
2024/04/07 00:44:35;;;;;;;7.45;2.88;;;15.20;99.90;;;;;;5020650;28;20042;-78
2024/04/07 00:47:00;;;;;;;9.95;3.15;;;15.20;99.90;;;;;;5046430;28;20045;-78
2024/04/07 00:49:26;;;;;;;11.95;3.50;;;15.20;99.90;;;;;;5043008;28;20045;-78
2024/04/07 00:51:52;;;;;;;8.38;2.45;;;15.20;99.90;;;;;;5037149;28;20049;-79
2024/04/07 00:54:20;;;;;;;7.63;2.63;;;15.20;99.90;;;;;;5039192;28;20508;-78
2024/04/07 00:56:45;;;;;;;8.38;3.50;;;15.30;99.90;;;;;;5041327;28;20351;-77
2024/04/07 00:59:11;;;;;;;9.63;2.75;;;15.30;99.90;;;;;;5037987;28;20037;-79
2024/04/07 01:01:37;;;;;;;5.43;2.30;;;15.40;99.90;;;;;;5038453;28;20132;-79
2024/04/07 01:04:03;;;;;;;9.52;2.80;;;15.40;99.90;;;;;;5038410;28;20048;-78
2024/04/07 01:06:29;;;;;;;8.15;3.00;;;15.40;99.90;;;;;;5048898;28;20041;-79
2024/04/07 01:08:56;;;;;;;13.35;3.33;;;15.50;99.90;;;;;;5036006;28;20436;-78
2024/04/07 01:11:29;;;;;;;6.97;2.60;;;15.60;99.90;;;;;;5037294;28;20600;-78
2024/04/07 01:13:55;;;;;;;10.45;3.10;;;15.60;99.90;;;;;;5041298;28;20120;-78
2024/04/07 01:16:21;;;;;;;8.05;2.50;;;15.70;99.90;;;;;;5043972;28;20123;-78
2024/04/07 01:18:47;;;;;;;9.77;3.20;;;15.80;99.90;;;;;;5038244;28;20037;-78
2024/04/07 01:21:13;;;;;;;7.13;2.53;;;15.80;99.90;;;;;;5037004;28;20048;-78
2024/04/07 01:23:38;;;;;;;8.38;3.10;;;15.80;99.90;;;;;;5039158;28;20120;-78
2024/04/07 01:26:04;;;;;;;8.52;3.13;;;15.80;99.90;;;;;;5036523;28;20417;-78
2024/04/07 01:28:30;;;;;;;4.40;2.25;;;15.90;99.90;;;;;;5037759;28;20520;-78
2024/04/07 01:30:55;;;;;;;7.28;2.30;;;15.80;99.90;;;;;;5038109;28;20061;-78
2024/04/07 01:33:21;;;;;;;7.43;2.15;;;15.80;99.90;;;;;;5043708;28;20044;-77
2024/04/07 01:35:46;;;;;;;5.70;2.38;;;15.80;99.90;;;;;;5062511;28;20048;-78
2024/04/07 01:38:12;;;;;;;10.30;3.00;;;15.70;99.90;;;;;;5035559;28;20638;-78
2024/04/07 01:40:38;;;;;;;6.38;2.20;;;15.70;99.90;;;;;;5035835;28;20048;-78
2024/04/07 01:43:04;;;;;;;9.48;2.72;;;15.70;99.90;;;;;;5045097;28;20053;-79
2024/04/07 01:45:30;;;;;;;9.23;2.47;;;15.60;99.90;;;;;;5065676;28;20063;-78
2024/04/07 01:47:55;;;;;;;10.40;2.15;;;15.70;99.90;;;;;;5038610;28;20044;-79
2024/04/07 01:50:21;;;;;;;5.72;2.25;;;15.70;99.90;;;;;;5043542;28;20076;-78
2024/04/07 01:52:47;;;;;;;5.50;2.00;;;15.60;99.90;;;;;;5055554;28;20045;-78
2024/04/07 01:55:12;;;;;;;7.25;2.38;;;15.60;99.90;;;;;;5039431;28;20044;-79
2024/04/07 01:57:38;;;;;;;7.50;2.35;;;15.60;99.90;;;;;;5039816;28;20042;-77
2024/04/07 02:00:07;;;;;;;7.68;2.40;;;15.60;99.90;;;;;;5043891;28;20044;-79
2024/04/07 02:02:35;;;;;;;6.60;2.33;;;15.50;99.90;;;;;;5040101;28;20415;-78
2024/04/07 02:05:02;;;;;;;6.45;1.60;;;15.50;99.90;;;;;;5042391;28;20045;-78
2024/04/07 02:07:27;;;;;;;5.15;1.40;;;15.40;99.90;;;;;;5035002;28;20173;-79
2024/04/07 02:09:53;;;;;;;7.72;2.00;;;15.30;99.90;;;;;;5041397;28;20041;-78
2024/04/07 02:12:18;;;;;;;6.82;1.60;;;15.30;99.90;;;;;;5024279;28;21354;-78
2024/04/07 02:14:44;;;;;;;6.20;1.70;;;15.20;99.90;;;;;;5039569;28;20129;-79
2024/04/07 02:17:12;;;;;;;4.28;1.27;;;15.10;99.90;;;;;;5045644;28;20036;-79
2024/04/07 02:19:38;;;;;;;5.88;2.05;;;15.00;99.90;;;;;;5042011;28;20034;-78
2024/04/07 02:22:04;;;;;;;4.45;1.55;;;14.90;99.90;;;;;;5024027;28;20044;-78
2024/04/07 02:24:30;;;;;;;6.75;1.60;;;14.80;99.90;;;;;;5026153;28;20113;-78
2024/04/07 02:26:56;;;;;;;8.18;1.88;;;14.80;99.90;;;;;;5033565;28;20072;-78
2024/04/07 02:29:22;;;;;;;4.03;1.20;;;14.70;99.90;;;;;;5037009;28;20052;-78
2024/04/07 02:31:48;;;;;;;7.07;1.50;;;14.70;99.90;;;;;;5049615;28;20052;-78
2024/04/07 02:34:14;;;;;;;8.50;1.83;;;14.60;99.90;;;;;;5037700;28;20033;-79
2024/04/07 02:36:40;;;;;;;5.00;1.30;;;14.60;99.90;;;;;;5041070;28;20420;-78
2024/04/07 02:39:09;;;;;;;5.78;1.20;;;14.50;99.90;;;;;;5040914;28;20037;-78
2024/04/07 02:41:40;;;;;;;6.07;1.70;;;14.50;99.90;;;;;;5038665;28;20056;-78
2024/04/07 02:44:06;;;;;;;3.70;1.27;;;14.50;99.90;;;;;;5035905;28;20049;-79
2024/04/07 02:49:16;;;;;;;6.47;1.40;;;14.40;99.90;;;;;;5041075;28;20107;-79
2024/04/07 02:51:42;;;;;;;4.97;1.48;;;14.40;99.90;;;;;;5036242;28;20041;-78
2024/04/07 02:54:10;;;;;;;4.45;1.17;;;14.40;99.90;;;;;;5038061;28;20033;-78
2024/04/07 02:56:36;;;;;;;3.42;1.30;;;14.30;99.90;;;;;;5049309;28;20076;-78
2024/04/07 02:59:02;;;;;;;5.05;1.35;;;14.30;99.90;;;;;;5036795;28;20041;-78
2024/04/07 03:01:27;;;;;;;5.18;1.10;;;14.30;99.90;;;;;;5037608;28;20049;-79
2024/04/07 03:03:53;;;;;;;3.95;1.20;;;14.20;99.90;;;;;;5040078;28;20041;-78
2024/04/07 03:06:19;;;;;;;5.35;1.17;;;14.20;99.90;;;;;;5034355;28;20044;-78
2024/04/07 03:08:44;;;;;;;5.05;1.20;;;14.20;99.90;;;;;;5033639;28;20037;-78
2024/04/07 03:11:10;;;;;;;3.63;0.93;;;14.20;99.90;;;;;;5037886;28;20048;-77
2024/04/07 03:13:35;;;;;;;3.05;1.33;;;14.20;99.90;;;;;;5041727;28;20072;-78
2024/04/07 03:16:07;;;;;;;4.35;1.30;;;14.20;99.90;;;;;;5057753;28;20263;-78
2024/04/07 03:18:33;;;;;;;6.32;1.55;;;14.10;99.90;;;;;;5037216;28;20520;-77
2024/04/07 03:20:59;;;;;;;7.85;2.08;;;14.30;99.90;;;;;;5044095;28;20120;-79
2024/04/07 03:23:24;;;;;;;3.67;1.20;;;14.00;99.90;;;;;;5039401;28;20172;-78
2024/04/07 03:25:50;;;;;;;4.55;1.48;;;13.90;99.90;;;;;;5040656;28;20038;-78
2024/04/07 03:28:15;;;;;;;3.67;1.15;;;14.70;99.90;;;;;;5057075;28;20034;-79
2024/04/07 03:30:42;;;;;;;2.70;1.17;;;13.70;99.90;;;;;;5033389;28;20497;-79
2024/04/07 03:33:07;;;;;;;4.10;1.55;;;13.70;99.90;;;;;;5040668;28;20068;-79
2024/04/07 03:35:33;;;;;;;3.40;1.27;;;13.60;99.90;;;;;;5033535;28;20069;-80
2024/04/07 03:37:58;;;;;;;3.20;1.10;;;13.60;99.90;;;;;;5035340;28;20227;-79
2024/04/07 03:40:25;;;;;;;3.38;1.20;;;13.50;99.90;;;;;;5041114;28;20034;-79
2024/04/07 03:42:51;;;;;;;3.55;1.08;;;13.40;99.90;;;;;;5033358;28;20129;-80
2024/04/07 03:45:16;;;;;;;4.15;1.25;;;13.30;99.90;;;;;;5040239;28;20072;-80
2024/04/07 03:47:42;;;;;;;3.53;1.27;;;13.30;99.90;;;;;;5038387;28;20069;-81
2024/04/07 03:50:08;;;;;;;4.57;1.48;;;13.20;99.90;;;;;;5039745;28;20041;-81
2024/04/07 03:52:34;;;;;;;3.35;1.00;;;13.20;99.90;;;;;;5041052;28;20167;-81
2024/04/07 03:55:00;;;;;;;2.58;1.02;;;13.10;99.90;;;;;;5039199;28;20038;-81
2024/04/07 03:57:25;;;;;;;3.92;1.08;;;13.10;99.90;;;;;;5041510;28;20041;-81
2024/04/07 03:59:51;;;;;;;5.20;1.27;;;13.00;99.90;;;;;;5041809;28;20041;-81
2024/04/07 04:02:28;;;;;;;4.22;1.35;;;13.00;99.90;;;;;;5043040;28;20095;-81
2024/04/07 04:05:02;;;;;;;5.82;1.95;;;13.00;99.90;;;;;;5035520;28;20037;-81
2024/04/07 04:07:28;;;;;;;2.80;1.05;;;12.90;99.90;;;;;;5052383;28;20108;-81
2024/04/07 04:09:56;;;;;;;6.05;1.30;;;12.90;99.90;;;;;;5048206;28;20560;-81
2024/04/07 04:12:25;;;;;;;4.28;1.30;;;12.90;99.90;;;;;;5044165;28;20045;-82
2024/04/07 04:14:52;;;;;;;4.05;1.50;;;12.90;99.90;;;;;;5043252;28;20120;-81
2024/04/07 04:17:18;;;;;;;4.32;1.33;;;12.90;99.90;;;;;;5048392;28;20075;-81
2024/04/07 04:19:44;;;;;;;4.25;1.17;;;12.90;99.90;;;;;;5048209;28;20041;-81
2024/04/07 04:22:09;;;;;;;4.78;1.15;;;12.90;99.90;;;;;;5043240;28;20041;-81
2024/04/07 04:24:35;;;;;;;2.78;1.33;;;13.00;99.90;;;;;;5046686;28;20094;-81
2024/04/07 04:27:05;;;;;;;6.15;1.55;;;12.90;99.90;;;;;;5046298;28;20052;-81
2024/04/07 04:29:36;;;;;;;4.22;1.58;;;12.90;99.90;;;;;;5051188;28;20044;-80
2024/04/07 04:32:02;;;;;;;4.63;1.65;;;13.00;99.90;;;;;;5047821;28;20038;-80
2024/04/07 04:34:28;;;;;;;6.90;1.90;;;12.90;99.90;;;;;;5029054;28;20038;-80
2024/04/07 04:36:55;;;;;;;7.15;1.77;;;12.90;99.90;;;;;;5037396;28;20043;-79
2024/04/07 04:39:21;;;;;;;5.57;2.15;;;12.90;99.90;;;;;;5047530;28;20052;-80
2024/04/07 04:41:48;;;;;;;4.97;1.88;;;12.90;99.90;;;;;;5045176;28;20045;-81
2024/04/07 04:44:15;;;;;;;5.75;1.77;;;12.80;99.90;;;;;;5049063;28;20073;-80
2024/04/07 04:46:41;;;;;;;6.10;2.03;;;12.80;99.90;;;;;;5041214;28;20052;-80
2024/04/07 04:49:14;;;;;;;5.50;2.08;;;13.30;99.90;;;;;;5051687;28;20048;-81
2024/04/07 04:51:40;;;;;;;4.55;1.45;;;12.90;99.90;;;;;;5053188;28;20040;-80
2024/04/07 04:54:06;;;;;;;5.10;1.63;;;12.90;99.90;;;;;;5033899;28;20051;-83
2024/04/07 04:56:31;;;;;;;5.75;1.38;;;13.00;99.90;;;;;;5052615;28;20040;-81
2024/04/07 04:58:58;;;;;;;4.05;1.38;;;12.90;99.90;;;;;;5037048;28;20037;-82
2024/04/07 05:01:25;;;;;;;3.67;1.40;;;13.00;99.90;;;;;;5052326;28;20132;-82
2024/04/07 05:03:51;;;;;;;5.50;1.27;;;13.00;99.90;;;;;;5052672;28;20044;-82
2024/04/07 05:06:18;;;;;;;3.58;1.30;;;13.00;99.90;;;;;;5051354;28;20033;-83
2024/04/07 05:08:44;;;;;;;3.10;1.25;;;13.00;99.90;;;;;;5055090;28;20049;-82
2024/04/07 05:11:10;;;;;;;5.75;1.48;;;13.00;99.90;;;;;;5045500;28;20047;-82
2024/04/07 05:13:36;;;;;;;6.40;1.77;;;13.00;99.90;;;;;;5046967;28;20041;-82
2024/04/07 05:16:03;;;;;;;4.30;1.20;;;13.00;99.90;;;;;;5048260;28;20040;-83
2024/04/07 05:18:30;;;;;;;3.70;1.00;;;13.00;99.90;;;;;;5049196;28;20096;-83
2024/04/07 05:20:56;;;;;;;2.13;1.00;;;13.10;99.90;;;;;;5045559;28;20041;-82
2024/04/07 05:23:24;;;;;;;3.00;1.20;;;13.90;99.90;;;;;;5068613;28;20461;-82
2024/04/07 05:25:53;;;;;;;4.72;1.20;;;13.10;99.90;;;;;;5052209;28;20070;-82
2024/04/07 05:28:21;;;;;;;5.00;1.20;;;13.10;99.90;;;;;;5047150;28;20036;-82
2024/04/07 05:30:46;;;;;;;2.40;0.90;;;13.10;99.90;;;;;;5043421;28;20545;-83
2024/04/07 05:33:12;;;;;;;3.58;1.20;;;13.10;99.90;;;;;;5048037;28;20045;-82
2024/04/07 05:35:37;;;;;;;3.75;0.90;;;13.10;99.90;;;;;;5067526;28;20053;-83
2024/04/07 05:38:03;;;;;;;2.28;0.77;;;13.10;99.90;;;;;;5047611;28;20048;-82
2024/04/07 05:40:29;;;;;;;1.52;0.60;;;13.10;99.90;;;;;;5044747;28;20051;-81
2024/04/07 05:42:55;;;;;;;3.15;0.88;;;13.20;99.90;;;;;;5047192;28;20048;-83
2024/04/07 05:45:21;;;;;;;2.80;1.02;;;13.20;99.90;;;;;;5038258;28;20052;-81
2024/04/07 05:47:51;;;;;;;3.38;0.70;;;13.20;99.90;;;;;;5031999;28;20044;-82
2024/04/07 05:50:17;;;;;;;4.47;1.13;;;13.20;99.90;;;;;;5060984;28;20084;-82
2024/04/07 05:52:44;;;;;;;3.03;0.80;;;13.20;99.90;;;;;;5043911;28;20037;-81
2024/04/07 05:55:10;;;;;;;2.92;0.80;;;13.20;99.90;;;;;;5046795;28;20043;-82
2024/04/07 05:57:39;;;;;;;4.20;0.90;;;13.30;99.90;;;;;;5035459;28;20104;-82
2024/04/07 06:00:09;;;;;;;8.02;1.48;;;14.10;99.90;;;;;;5039342;28;20048;-81
2024/04/07 06:02:35;;;;;;;3.78;1.17;;;13.40;99.90;;;;;;5045566;28;20041;-83
2024/04/07 06:05:01;;;;;;;2.60;0.75;;;13.40;99.90;;;;;;5039996;28;20041;-83
2024/04/07 06:07:27;;;;;;;2.97;1.00;;;13.40;99.90;;;;;;5060602;28;20048;-81
2024/04/07 06:09:53;;;;;;;2.40;0.82;;;13.50;99.90;;;;;;5044901;28;20040;-81
2024/04/07 06:12:18;;;;;;;10.48;2.15;;;13.50;99.90;;;;;;5042595;28;20034;-83
2024/04/07 06:14:46;;;;;;;2.97;0.88;;;13.50;99.90;;;;;;5037761;28;20040;-82
2024/04/07 06:17:11;;;;;;;1.90;0.80;;;13.50;99.90;;;;;;5024888;28;20032;-82
2024/04/07 06:19:37;;;;;;;3.13;0.90;;;14.10;99.90;;;;;;5045375;28;20124;-82
2024/04/07 06:22:03;;;;;;;5.43;0.98;;;13.60;99.90;;;;;;5044536;28;20482;-80
2024/04/07 06:24:29;;;;;;;2.30;0.93;;;13.60;99.90;;;;;;5051608;28;20033;-81
2024/04/07 06:26:54;;;;;;;2.40;1.00;;;13.60;99.90;;;;;;5048657;28;20104;-81
2024/04/07 06:29:20;;;;;;;3.60;1.58;;;13.60;99.90;;;;;;5040439;28;20041;-81
2024/04/07 06:31:45;;;;;;;6.57;2.00;;;13.60;99.90;;;;;;5036904;28;20525;-80
2024/04/07 06:34:11;;;;;;;4.13;1.10;;;13.50;99.90;;;;;;5040424;28;20041;-81
2024/04/07 06:36:36;;;;;;;4.57;1.25;;;13.50;99.90;;;;;;5043914;28;20040;-81
2024/04/07 06:39:02;;;;;;;9.18;2.45;;;13.50;99.90;;;;;;5037331;28;20071;-80
2024/04/07 06:41:27;;;;;;;5.38;2.30;;;13.40;99.90;;;;;;5036740;28;20070;-80
2024/04/07 06:43:54;;;;;;;5.55;1.88;;;13.50;99.90;;;;;;5027351;28;20159;-81
2024/04/07 06:46:19;;;;;;;4.82;1.90;;;13.50;99.90;;;;;;5037682;28;20038;-81
2024/04/07 06:48:45;;;;;;;2.80;1.20;;;13.80;99.90;;;;;;5043567;28;20048;-81
2024/04/07 06:51:11;;;;;;;5.57;1.40;;;13.80;99.90;;;;;;5040059;28;20041;-82
2024/04/07 06:53:37;;;;;;;3.65;1.20;;;13.90;99.90;;;;;;5035651;28;20060;-80
2024/04/07 06:56:03;;;;;;;4.10;1.30;;;14.00;99.90;;;;;;5041706;28;20028;-81
2024/04/07 06:58:31;;;;;;;5.28;1.80;;;14.10;99.90;;;;;;5063551;28;20036;-81
2024/04/07 07:00:59;;;;;;;4.47;1.40;;;14.20;99.90;;;;;;5043119;28;20515;-81
2024/04/07 07:03:24;;;;;;;6.03;1.48;;;14.20;99.90;;;;;;5040049;28;20045;-81
2024/04/07 07:05:50;;;;;;;2.95;1.20;;;14.30;99.90;;;;;;5040615;28;20079;-80
2024/04/07 07:08:16;;;;;;;5.07;1.40;;;14.50;99.90;;;;;;5037844;28;20572;-80
2024/04/07 07:10:41;;;;;;;4.82;1.67;;;14.60;99.90;;;;;;5038805;28;20512;-81
2024/04/07 07:13:07;;;;;;;4.07;1.30;;;14.80;99.90;;;;;;5040684;28;20078;-81
2024/04/07 07:15:32;;;;;;;3.35;1.10;;;14.90;99.90;;;;;;5037689;28;20167;-80
2024/04/07 07:17:58;;;;;;;3.55;1.15;;;15.10;99.90;;;;;;5039398;28;20059;-81
2024/04/07 07:20:23;;;;;;;5.43;1.60;;;15.20;99.90;;;;;;5036033;28;20042;-81
2024/04/07 07:22:49;;;;;;;3.25;1.83;;;15.40;99.90;;;;;;5039129;28;20421;-83
2024/04/07 07:25:15;;;;;;;5.35;1.10;;;15.50;99.90;;;;;;5034952;28;20116;-81
2024/04/07 07:27:40;;;;;;;3.83;1.23;;;15.40;99.90;;;;;;5038730;28;20044;-81
2024/04/07 07:30:06;;;;;;;2.67;1.00;;;15.60;99.90;;;;;;5034851;28;20049;-81
2024/04/07 07:32:32;;;;;;;3.60;1.42;;;15.60;99.90;;;;;;5038252;28;20128;-81
2024/04/07 07:34:58;;;;;;;4.22;1.17;;;15.60;99.90;;;;;;5021999;28;20033;-80
2024/04/07 07:37:23;;;;;;;7.32;1.58;;;15.70;99.90;;;;;;5048110;28;20041;-80
2024/04/07 07:39:49;;;;;;;3.45;1.00;;;15.80;99.90;;;;;;5033351;28;20536;-81
2024/04/07 07:42:14;;;;;;;2.58;1.00;;;15.80;99.90;;;;;;5031211;28;20045;-81
2024/04/07 07:44:40;;;;;;;3.38;0.90;;;15.90;99.90;;;;;;5031693;28;20099;-80
2024/04/07 07:47:06;;;;;;;4.35;1.52;;;15.90;99.90;;;;;;5033501;28;20051;-80
2024/04/07 07:49:31;;;;;;;5.13;1.20;;;16.10;99.90;;;;;;5033475;28;20049;-81
2024/04/07 07:51:57;;;;;;;5.28;1.50;;;16.00;99.90;;;;;;5032624;28;20080;-81
2024/04/07 07:54:22;;;;;;;4.72;1.30;;;15.90;99.90;;;;;;5033282;28;20049;-80
2024/04/07 07:56:48;;;;;;;6.78;1.55;;;15.90;99.90;;;;;;5036429;28;20033;-81
2024/04/07 07:59:13;;;;;;;5.38;1.90;;;15.90;99.90;;;;;;5037344;28;20416;-80
2024/04/07 08:01:39;;;;;;;6.00;1.60;;;15.90;99.90;;;;;;5033730;28;20053;-81
2024/04/07 08:04:05;;;;;;;8.45;1.80;;;15.90;99.90;;;;;;5036044;28;20142;-80
2024/04/07 08:06:30;;;;;;;7.40;1.98;;;15.80;99.90;;;;;;5036231;28;20044;-79
2024/04/07 08:08:56;;;;;;;4.88;1.77;;;15.80;99.90;;;;;;5037167;28;20513;-79
2024/04/07 08:11:22;;;;;;;4.78;1.70;;;15.80;99.90;;;;;;5037577;28;20045;-80
2024/04/07 08:13:47;;;;;;;6.68;2.80;;;15.90;99.90;;;;;;5031678;28;20099;-81
2024/04/07 08:16:13;;;;;;;7.70;2.17;;;15.90;99.90;;;;;;5036285;28;20120;-79
2024/04/07 08:18:40;;;;;;;4.88;2.05;;;16.10;99.90;;;;;;5038338;28;20169;-79
2024/04/07 08:21:06;;;;;;;4.32;1.65;;;16.40;99.90;;;;;;5036892;28;20394;-81
2024/04/07 08:23:31;;;;;;;5.15;2.00;;;16.30;99.90;;;;;;5036859;28;20053;-81
2024/04/07 08:25:58;;;;;;;7.18;1.90;;;16.30;99.90;;;;;;5035909;28;20056;-80
2024/04/07 08:28:24;;;;;;;5.88;1.92;;;16.30;99.90;;;;;;5035418;28;20045;-79
2024/04/07 08:30:50;;;;;;;7.30;2.58;;;16.40;99.90;;;;;;5030619;28;20037;-82
2024/04/07 08:33:16;;;;;;;7.18;2.53;;;16.30;99.90;;;;;;5035730;28;20044;-79
2024/04/07 08:35:42;;;;;;;5.40;1.90;;;16.40;99.90;;;;;;5035555;28;20780;-80
2024/04/07 08:38:08;;;;;;;7.80;2.13;;;16.50;99.90;;;;;;5035991;28;20048;-81
2024/04/07 08:40:33;;;;;;;4.60;1.70;;;16.60;99.90;;;;;;5036416;28;20183;-80
2024/04/07 08:42:59;;;;;;;5.25;2.45;;;16.70;99.90;;;;;;5035060;28;20061;-80
2024/04/07 08:45:26;;;;;;;5.15;1.50;;;16.80;99.90;;;;;;5029243;28;20049;-82
2024/04/07 08:47:52;;;;;;;4.07;1.70;;;16.70;99.90;;;;;;5035782;28;20041;-80
2024/04/07 08:50:18;;;;;;;5.75;1.77;;;16.90;99.90;;;;;;5036348;28;20045;-82
2024/04/07 08:52:44;;;;;;;4.97;1.50;;;17.00;99.90;;;;;;5036255;28;20117;-81
2024/04/07 08:55:10;;;;;;;7.15;2.05;;;17.00;99.90;;;;;;5033665;28;20097;-81
2024/04/07 08:57:38;;;;;;;5.05;1.40;;;17.20;99.90;;;;;;5033456;28;20428;-81
2024/04/07 09:00:06;;;;;;;4.13;1.35;;;17.40;99.90;;;;;;5032493;28;20042;-81
2024/04/07 09:02:32;;;;;;;6.53;2.33;;;17.40;99.90;;;;;;5035858;28;20049;-81
2024/04/07 09:04:58;;;;;;;6.07;1.48;;;17.50;99.90;;;;;;5036036;28;20397;-79
2024/04/07 09:07:24;;;;;;;5.93;1.67;;;17.20;99.90;;;;;;5035791;28;20112;-80
2024/04/07 09:09:50;;;;;;;3.92;1.08;;;17.10;99.90;;;;;;5036177;28;20065;-81
2024/04/07 09:12:15;;;;;;;4.25;1.27;;;17.10;99.90;;;;;;5029606;28;20096;-79
2024/04/07 09:14:45;;;;;;;4.85;1.15;;;16.90;99.90;;;;;;5037588;28;20064;-81
2024/04/07 09:17:10;;;;;;;5.55;1.60;;;16.80;99.90;;;;;;5035493;28;20093;-80
2024/04/07 09:19:38;;;;;;;5.05;1.65;;;17.00;99.90;;;;;;5036298;28;20134;-80
2024/04/07 09:22:05;;;;;;;3.53;1.20;;;16.90;99.90;;;;;;5035978;28;20507;-80
2024/04/07 09:24:32;;;;;;;3.50;1.33;;;16.70;99.90;;;;;;5037058;28;20064;-80
2024/04/07 09:26:59;;;;;;;6.35;1.45;;;16.80;99.90;;;;;;5035337;28;20535;-80
2024/04/07 09:29:28;;;;;;;4.97;1.17;;;16.70;99.90;;;;;;5036509;28;20420;-80
2024/04/07 09:31:55;;;;;;;4.00;1.15;;;16.60;99.90;;;;;;5036161;28;20073;-79
2024/04/07 09:34:20;;;;;;;6.28;1.30;;;16.70;99.90;;;;;;5035841;28;20044;-80
2024/04/07 09:36:46;;;;;;;7.65;1.60;;;16.70;99.90;;;;;;5035710;28;20041;-81
2024/04/07 09:39:11;;;;;;;5.85;1.55;;;16.80;99.90;;;;;;5043593;28;20053;-80
2024/04/07 09:41:37;;;;;;;5.30;1.08;;;17.00;99.90;;;;;;5032597;28;20052;-79
2024/04/07 09:44:08;;;;;;;5.97;1.48;;;17.10;99.90;;;;;;5039162;28;20040;-79
2024/04/07 09:46:40;;;;;;;3.28;1.25;;;17.30;99.90;;;;;;5043458;28;20037;-81
2024/04/07 09:49:09;;;;;;;4.85;1.10;;;17.50;99.90;;;;;;5029018;28;20817;-79
2024/04/07 09:51:52;;;;;;;6.28;1.67;;;17.60;99.90;;;;;;5047229;28;20037;-80
2024/04/07 09:54:44;;;;;;;5.32;1.10;;;17.70;99.90;;;;;;5021605;28;20108;-80
2024/04/07 09:57:11;;;;;;;8.43;1.55;;;17.80;99.90;;;;;;5042846;28;20038;-80
2024/04/07 09:59:38;;;;;;;4.55;1.00;;;17.90;99.90;;;;;;5040476;28;20067;-81
2024/04/07 10:02:04;;;;;;;5.18;1.20;;;18.00;99.90;;;;;;5023801;28;20428;-80
2024/04/07 10:04:34;;;;;;;5.75;1.38;;;18.00;99.90;;;;;;5035365;28;20457;-81
2024/04/07 10:07:04;;;;;;;6.75;1.20;;;18.10;99.90;;;;;;5036484;28;20057;-81
2024/04/07 10:09:31;;;;;;;3.03;1.15;;;18.20;99.90;;;;;;5029747;28;20052;-82
2024/04/07 10:11:57;;;;;;;4.57;1.45;;;18.50;99.90;;;;;;5033948;28;20045;-81
2024/04/07 10:14:35;;;;;;;2.90;0.95;;;18.50;99.90;;;;;;5033547;28;20045;-80
2024/04/07 10:17:00;;;;;;;6.72;1.77;;;18.60;99.90;;;;;;5035462;28;20080;-81
2024/04/07 10:19:26;;;;;;;4.40;1.30;;;18.80;99.90;;;;;;5018469;28;20030;-79
2024/04/07 10:21:53;;;;;;;3.55;1.20;;;18.60;99.90;;;;;;5029597;28;20060;-81
2024/04/07 10:24:20;;;;;;;4.40;1.20;;;18.70;99.90;;;;;;5035867;28;20083;-80
2024/04/07 10:26:58;;;;;;;8.52;1.55;;;18.60;99.90;;;;;;5051495;28;20053;-79
2024/04/07 10:29:30;;;;;;;4.55;1.10;;;18.60;99.90;;;;;;5018046;28;20045;-79
2024/04/07 10:31:56;;;;;;;6.63;1.50;;;18.60;99.90;;;;;;5043728;28;20041;-81
2024/04/07 10:34:21;;;;;;;5.05;1.20;;;18.70;99.90;;;;;;5034961;28;20045;-82
2024/04/07 10:36:56;;;;;;;6.22;1.40;;;18.60;99.90;;;;;;5045077;28;20496;-81
2024/04/07 10:39:23;;;;;;;4.38;1.20;;;18.50;99.90;;;;;;5021825;28;20038;-81
2024/04/07 10:41:50;;;;;;;4.50;1.20;;;18.70;99.90;;;;;;5047457;28;20356;-80
2024/04/07 10:44:16;;;;;;;6.63;1.35;;;18.70;99.90;;;;;;5040364;28;20030;-80
2024/04/07 10:46:42;;;;;;;5.13;1.70;;;18.80;99.90;;;;;;5037526;28;20104;-81
2024/04/07 10:49:08;;;;;;;3.40;0.95;;;18.90;99.90;;;;;;5042774;28;20124;-80
2024/04/07 10:51:34;;;;;;;3.60;1.00;;;18.90;99.90;;;;;;5040643;28;20051;-80
2024/04/07 10:54:02;;;;;;;3.63;0.93;;;19.00;99.90;;;;;;5042046;28;20033;-81
2024/04/07 10:56:29;;;;;;;4.68;1.25;;;19.00;99.90;;;;;;5042118;28;20037;-79
2024/04/07 10:58:57;;;;;;;5.63;1.38;;;19.10;99.90;;;;;;5031284;28;20044;-79
2024/04/07 11:01:23;;;;;;;5.43;1.45;;;19.10;99.90;;;;;;5034176;28;20045;-80
2024/04/07 11:03:49;;;;;;;4.28;1.10;;;19.30;99.90;;;;;;5042950;28;20038;-82
2024/04/07 11:06:15;;;;;;;2.65;0.90;;;19.40;99.90;;;;;;5039996;28;20457;-79
2024/04/07 11:08:41;;;;;;;3.28;0.88;;;19.40;99.90;;;;;;5050425;28;20060;-79
2024/04/07 11:11:10;;;;;;;5.28;0.98;;;19.60;99.90;;;;;;5039640;28;20087;-80
2024/04/07 11:13:36;;;;;;;5.80;1.02;;;19.70;99.90;;;;;;5045997;28;20037;-81
2024/04/07 11:16:01;;;;;;;4.03;1.00;;;19.60;99.90;;;;;;5043697;28;20040;-79
2024/04/07 11:18:27;;;;;;;6.95;1.30;;;19.80;99.90;;;;;;5045231;28;20171;-78
2024/04/07 11:20:59;;;;;;;5.13;1.30;;;19.70;99.90;;;;;;5044565;28;20076;-79
2024/04/07 11:23:25;;;;;;;8.07;1.20;;;19.80;99.90;;;;;;5048520;28;20090;-79
2024/04/07 11:25:52;;;;;;;5.13;0.95;;;19.60;99.90;;;;;;5036875;28;20037;-80
2024/04/07 11:28:19;;;;;;;4.72;1.17;;;19.50;99.90;;;;;;5020706;28;20075;-82
2024/04/07 11:30:48;;;;;;;3.17;1.00;;;19.60;99.90;;;;;;5048397;28;20457;-78
2024/04/07 11:33:15;;;;;;;3.38;1.08;;;19.40;99.90;;;;;;5044018;28;20144;-79
2024/04/07 11:35:44;;;;;;;4.85;1.08;;;19.60;99.90;;;;;;5038487;28;20365;-79
2024/04/07 11:38:14;;;;;;;5.55;1.02;;;19.70;99.90;;;;;;5039062;28;20447;-79
2024/04/07 11:40:40;;;;;;;3.15;0.85;;;19.70;99.90;;;;;;5035050;28;20045;-79
2024/04/07 11:43:07;;;;;;;4.30;0.98;;;19.90;99.90;;;;;;5043480;28;20065;-80
2024/04/07 11:45:33;;;;;;;8.70;1.33;;;19.80;99.90;;;;;;5043578;28;20049;-80
2024/04/07 11:47:59;;;;;;;5.28;1.17;;;19.70;99.90;;;;;;5043867;28;20153;-80
2024/04/07 11:50:25;;;;;;;4.43;1.40;;;19.70;99.90;;;;;;5039347;28;20041;-80
2024/04/07 11:52:50;;;;;;;8.07;1.42;;;19.80;99.90;;;;;;5043073;28;20503;-78
2024/04/07 11:55:16;;;;;;;3.90;1.23;;;19.60;99.90;;;;;;5037102;28;20523;-81
2024/04/07 11:57:42;;;;;;;3.75;1.25;;;19.60;99.90;;;;;;5046776;28;20029;-80
2024/04/07 12:00:08;;;;;;;8.70;1.13;;;19.90;99.90;;;;;;5040532;28;20041;-80
2024/04/07 12:02:34;;;;;;;6.43;1.23;;;19.90;99.90;;;;;;5032948;28;20575;-79
2024/04/07 12:05:02;;;;;;;5.38;1.30;;;20.10;99.90;;;;;;5044419;28;20048;-79
2024/04/07 12:07:27;;;;;;;3.75;1.20;;;20.00;99.90;;;;;;5061275;28;20037;-79
2024/04/07 12:09:53;;;;;;;8.80;1.30;;;19.90;99.90;;;;;;5045150;28;20037;-80
2024/04/07 12:12:18;;;;;;;4.95;1.42;;;19.80;99.90;;;;;;5038601;28;20492;-79
2024/04/07 12:14:44;;;;;;;3.90;1.35;;;19.90;99.90;;;;;;5042834;28;20195;-78
2024/04/07 12:17:09;;;;;;;7.05;1.40;;;20.10;99.90;;;;;;5034452;28;20033;-77
2024/04/07 12:19:35;;;;;;;5.13;1.35;;;20.10;99.90;;;;;;5040927;28;20037;-78
2024/04/07 12:22:07;;;;;;;5.18;1.10;;;20.20;99.90;;;;;;5036158;28;20059;-78
2024/04/07 12:24:33;;;;;;;3.95;1.65;;;20.30;99.90;;;;;;5043837;28;20059;-78
2024/04/07 12:26:59;;;;;;;4.05;1.38;;;20.40;99.90;;;;;;5043977;28;20033;-78
2024/04/07 12:29:24;;;;;;;5.07;1.65;;;20.50;99.90;;;;;;5046897;28;20049;-81
2024/04/07 12:31:51;;;;;;;5.00;1.63;;;20.50;99.90;;;;;;5034878;28;20037;-78
2024/04/07 12:34:17;;;;;;;4.20;1.13;;;20.50;99.90;;;;;;5037267;28;20576;-80
2024/04/07 12:36:43;;;;;;;3.92;0.98;;;20.50;99.90;;;;;;5043079;28;20037;-80
2024/04/07 12:39:08;;;;;;;6.22;1.13;;;20.60;99.90;;;;;;5035545;28;20041;-80
2024/04/07 12:41:34;;;;;;;7.25;1.55;;;20.30;99.90;;;;;;5039660;28;20412;-80
2024/04/07 12:44:01;;;;;;;6.32;1.52;;;19.90;99.90;;;;;;5042955;28;20044;-79